createdAt,value
2022-11-28T00:01:35.647Z,101224.81
2022-11-28T00:04:04.717Z,101219.56
2022-11-28T00:06:35.892Z,101226.31
2022-11-28T00:09:02.546Z,101229.09
2022-11-28T00:11:29.187Z,101227.41
2022-11-28T00:13:55.875Z,101226.78
2022-11-28T00:16:25.321Z,101232.75
2022-11-28T00:18:52.778Z,101229.34
2022-11-28T00:21:22.240Z,101229.91
2022-11-28T00:23:49.542Z,101227.72
2022-11-28T00:26:25.929Z,101228.97
2022-11-28T00:28:55.374Z,101225.16
2022-11-28T00:31:25.910Z,101229.50
2022-11-28T00:33:52.688Z,101231.47
2022-11-28T00:36:22.108Z,101230.47
2022-11-28T00:38:53.427Z,101227.19
2022-11-28T00:41:23.999Z,101235.56
2022-11-28T00:43:52.920Z,101229.88
2022-11-28T00:46:19.711Z,101234.41
2022-11-28T00:48:48.865Z,101226.66
2022-11-28T00:51:16.624Z,101229.06
2022-11-28T00:53:44.676Z,101227.22
2022-11-28T00:56:12.116Z,101229.78
2022-11-28T00:58:38.990Z,101235.91
2022-11-28T01:01:20.010Z,101234.22
2022-11-28T01:03:47.523Z,101241.91
2022-11-28T01:06:18.560Z,101241.00
2022-11-28T01:08:45.228Z,101235.22
2022-11-28T01:11:13.236Z,101231.03
2022-11-28T01:13:40.296Z,101225.16
2022-11-28T01:16:09.418Z,101230.03
2022-11-28T01:18:36.218Z,101222.28
2022-11-28T01:21:05.866Z,101225.88
2022-11-28T01:23:34.762Z,101219.28
2022-11-28T01:26:06.328Z,101221.81
2022-11-28T01:28:33.238Z,101223.09
2022-11-28T01:31:07.041Z,101222.38
2022-11-28T01:33:34.304Z,101220.91
2022-11-28T01:36:01.093Z,101217.34
2022-11-28T01:38:28.149Z,101218.91
2022-11-28T01:40:55.083Z,101216.13
2022-11-28T01:43:21.803Z,101208.06
2022-11-28T01:45:50.762Z,101210.00
2022-11-28T01:48:21.364Z,101201.25
2022-11-28T01:50:50.113Z,101194.16
2022-11-28T01:53:18.982Z,101184.69
2022-11-28T01:55:58.698Z,101186.84
2022-11-28T01:58:28.115Z,101182.22
2022-11-28T02:00:57.450Z,101182.72
2022-11-28T02:03:33.490Z,101180.97
2022-11-28T02:06:00.108Z,101174.19
2022-11-28T02:08:31.812Z,101173.66
2022-11-28T02:11:17.079Z,101172.94
2022-11-28T02:13:53.643Z,101171.69
2022-11-28T02:16:38.686Z,101169.81
2022-11-28T02:19:11.446Z,101169.66
2022-11-28T02:21:47.178Z,101166.16
2022-11-28T02:24:13.749Z,101164.03
2022-11-28T02:26:43.280Z,101167.75
2022-11-28T02:29:28.596Z,101163.84
2022-11-28T02:32:01.198Z,101165.88
2022-11-28T02:34:32.889Z,101160.78
2022-11-28T02:37:03.605Z,101166.63
2022-11-28T02:39:58.863Z,101153.53
2022-11-28T02:42:29.455Z,101155.84
2022-11-28T02:44:58.967Z,101155.47
2022-11-28T02:47:36.689Z,101151.19
2022-11-28T02:50:10.964Z,101150.19
2022-11-28T02:52:49.863Z,101145.41
2022-11-28T02:55:16.517Z,101149.19
2022-11-28T02:57:49.529Z,101143.22
2022-11-28T03:00:23.428Z,101143.47
2022-11-28T03:02:51.295Z,101145.75
2022-11-28T03:05:27.684Z,101144.41
2022-11-28T03:08:27.100Z,101142.09
2022-11-28T03:11:12.514Z,101139.59
2022-11-28T03:13:39.575Z,101138.00
2022-11-28T03:16:19.368Z,101140.06
2022-11-28T03:19:06.605Z,101143.09
2022-11-28T03:21:52.333Z,101132.44
2022-11-28T03:24:27.211Z,101126.03
2022-11-28T03:26:59.811Z,101131.09
2022-11-28T03:29:38.907Z,101128.34
2022-11-28T03:32:10.147Z,101123.78
2022-11-28T03:34:41.740Z,101119.06
2022-11-28T03:37:11.374Z,101113.88
2022-11-28T03:39:41.757Z,101102.78
2022-11-28T03:42:10.595Z,101097.25
2022-11-28T03:44:43.464Z,101095.94
2022-11-28T03:47:10.346Z,101087.13
2022-11-28T03:49:57.297Z,101084.00
2022-11-28T03:52:25.474Z,101083.44
2022-11-28T03:54:55.967Z,101072.53
2022-11-28T03:57:35.170Z,101071.78
2022-11-28T04:00:08.818Z,101065.84
2022-11-28T04:03:16.414Z,101069.13
2022-11-28T04:05:46.871Z,101063.81
2022-11-28T04:08:15.885Z,101073.06
2022-11-28T04:10:48.469Z,101066.81
2022-11-28T04:13:26.248Z,101065.84
2022-11-28T04:16:11.178Z,101061.91
2022-11-28T04:18:59.206Z,101059.00
2022-11-28T04:21:31.944Z,101066.63
2022-11-28T04:24:04.011Z,101065.69
2022-11-28T04:26:32.765Z,101059.69
2022-11-28T04:28:59.877Z,101058.81
2022-11-28T04:31:26.621Z,101057.75
2022-11-28T04:33:55.099Z,101057.75
2022-11-28T04:36:21.690Z,101056.69
2022-11-28T04:38:56.294Z,101057.66
2022-11-28T04:41:29.150Z,101058.09
2022-11-28T04:44:17.056Z,101055.78
2022-11-28T04:46:45.357Z,101061.13
2022-11-28T04:49:12.139Z,101064.84
2022-11-28T04:51:49.176Z,101059.97
2022-11-28T04:54:20.353Z,101055.00
2022-11-28T04:56:48.375Z,101050.53
2022-11-28T04:59:14.980Z,101050.53
2022-11-28T05:01:41.926Z,101049.72
2022-11-28T05:04:10.942Z,101053.81
2022-11-28T05:06:40.040Z,101055.53
2022-11-28T05:09:06.645Z,101053.75
2022-11-28T05:11:35.261Z,101051.19
2022-11-28T05:14:01.873Z,101057.66
2022-11-28T05:16:31.369Z,101060.78
2022-11-28T05:18:58.115Z,101056.13
2022-11-28T05:21:24.812Z,101055.94
2022-11-28T05:23:51.323Z,101055.59
2022-11-28T05:26:22.317Z,101059.66
2022-11-28T05:28:52.031Z,101063.06
2022-11-28T05:31:19.497Z,101065.47
2022-11-28T05:33:51.399Z,101068.03
2022-11-28T05:36:21.006Z,101075.97
2022-11-28T05:38:49.927Z,101071.50
2022-11-28T05:41:23.774Z,101074.00
2022-11-28T05:43:50.539Z,101081.94
2022-11-28T05:46:18.078Z,101080.69
2022-11-28T05:48:47.402Z,101077.31
2022-11-28T05:51:14.227Z,101087.97
2022-11-28T05:53:43.507Z,101097.41
2022-11-28T05:56:16.232Z,101079.91
2022-11-28T05:58:42.770Z,101090.31
2022-11-28T06:01:10.498Z,101092.88
2022-11-28T06:03:39.185Z,101083.56
2022-11-28T06:06:10.290Z,101091.63
2022-11-28T06:08:39.353Z,101085.13
2022-11-28T06:11:06.270Z,101085.50
2022-11-28T06:13:32.953Z,101082.22
2022-11-28T06:16:03.597Z,101086.94
2022-11-28T06:18:30.415Z,101081.22
2022-11-28T06:20:56.988Z,101085.63
2022-11-28T06:23:24.341Z,101081.41
2022-11-28T06:25:50.906Z,101087.81
2022-11-28T06:28:17.448Z,101083.53
2022-11-28T06:30:46.479Z,101086.03
2022-11-28T06:33:13.482Z,101088.19
2022-11-28T06:35:40.100Z,101083.38
2022-11-28T06:38:10.235Z,101086.13
2022-11-28T06:40:40.591Z,101093.16
2022-11-28T06:43:07.138Z,101095.28
2022-11-28T06:45:34.212Z,101091.91
2022-11-28T06:48:00.947Z,101097.09
2022-11-28T06:50:29.985Z,101092.38
2022-11-28T06:52:56.602Z,101111.31
2022-11-28T06:55:25.543Z,101108.91
2022-11-28T06:57:54.660Z,101099.56
2022-11-28T07:00:21.263Z,101099.75
2022-11-28T07:02:47.965Z,101106.69
2022-11-28T07:05:16.702Z,101099.91
2022-11-28T07:07:53.692Z,101097.78
2022-11-28T07:10:20.906Z,101103.13
2022-11-28T07:12:47.506Z,101093.16
2022-11-28T07:15:14.032Z,101100.38
2022-11-28T07:17:40.620Z,101095.13
2022-11-28T07:20:07.460Z,101095.28
2022-11-28T07:22:34.029Z,101095.56
2022-11-28T07:25:01.032Z,101094.75
2022-11-28T07:27:32.419Z,101096.00
2022-11-28T07:29:59.358Z,101098.94
2022-11-28T07:32:28.275Z,101102.34
2022-11-28T07:34:54.817Z,101098.78
2022-11-28T07:37:23.581Z,101101.16
2022-11-28T07:39:50.291Z,101098.53
2022-11-28T07:42:16.888Z,101093.34
2022-11-28T07:45:05.424Z,101077.22
2022-11-28T07:47:31.966Z,101089.59
2022-11-28T07:49:58.552Z,101076.94
2022-11-28T07:52:25.101Z,101076.69
2022-11-28T07:54:51.727Z,101076.09
2022-11-28T07:57:18.321Z,101075.09
2022-11-28T07:59:45.136Z,101070.91
2022-11-28T08:02:14.243Z,101069.22
2022-11-28T08:04:49.410Z,101075.00
2022-11-28T08:07:18.477Z,101074.88
2022-11-28T08:09:47.700Z,101067.75
2022-11-28T08:12:14.331Z,101068.56
2022-11-28T08:14:44.241Z,101065.34
2022-11-28T08:17:11.036Z,101065.31
2022-11-28T08:19:37.596Z,101059.06
2022-11-28T08:22:04.227Z,101067.81
2022-11-28T08:24:33.306Z,101068.94
2022-11-28T08:27:02.539Z,101067.81
2022-11-28T08:29:29.333Z,101072.88
2022-11-28T08:31:56.011Z,101079.38
2022-11-28T08:34:22.551Z,101079.53
2022-11-28T08:36:50.258Z,101084.31
2022-11-28T08:39:25.079Z,101084.06
2022-11-28T08:41:52.360Z,101088.47
2022-11-28T08:44:21.443Z,101090.44
2022-11-28T08:46:48.126Z,101089.91
2022-11-28T08:49:14.711Z,101089.03
2022-11-28T08:51:43.983Z,101086.16
2022-11-28T08:54:10.581Z,101084.63
2022-11-28T08:56:39.595Z,101088.91
2022-11-28T08:59:07.198Z,101086.34
2022-11-28T09:01:36.104Z,101089.03
2022-11-28T09:04:05.198Z,101085.09
2022-11-28T09:06:31.842Z,101078.53
2022-11-28T09:08:58.387Z,101086.63
2022-11-28T09:11:25.006Z,101085.16
2022-11-28T09:13:51.683Z,101083.22
2022-11-28T09:16:21.152Z,101074.44
2022-11-28T09:18:47.795Z,101070.44
2022-11-28T09:21:16.834Z,101073.00
2022-11-28T09:23:44.059Z,101069.47
2022-11-28T09:26:11.307Z,101065.22
2022-11-28T09:28:42.523Z,101067.53
2022-11-28T09:31:09.195Z,101061.13
2022-11-28T09:33:36.052Z,101066.13
2022-11-28T09:36:06.359Z,101060.94
2022-11-28T09:38:32.954Z,101062.44
2022-11-28T09:40:59.957Z,101066.63
2022-11-28T09:43:38.631Z,101053.44
2022-11-28T09:46:06.304Z,101046.78
2022-11-28T09:48:32.918Z,101043.25
2022-11-28T09:51:03.871Z,101042.88
2022-11-28T09:53:30.433Z,101038.06
2022-11-28T09:56:00.409Z,101035.59
2022-11-28T09:58:28.556Z,101032.09
2022-11-28T10:01:01.251Z,101035.41
2022-11-28T10:03:46.152Z,101026.22
2022-11-28T10:06:31.011Z,101028.81
2022-11-28T10:09:19.308Z,101028.34
2022-11-28T10:11:51.929Z,101022.47
2022-11-28T10:14:39.670Z,101026.81
2022-11-28T10:17:06.307Z,101017.69
2022-11-28T10:19:54.645Z,101021.41
2022-11-28T10:22:43.056Z,101018.66
2022-11-28T10:25:32.826Z,101011.97
2022-11-28T10:27:59.551Z,101014.53
2022-11-28T10:30:27.262Z,101014.78
2022-11-28T10:33:14.091Z,101003.22
2022-11-28T10:35:57.038Z,101008.72
2022-11-28T10:38:27.813Z,101003.75
2022-11-28T10:41:03.450Z,101001.06
2022-11-28T10:43:44.179Z,100999.13
2022-11-28T10:46:13.730Z,100991.31
2022-11-28T10:48:49.925Z,100990.72
2022-11-28T10:51:26.007Z,100985.63
2022-11-28T10:54:04.692Z,100983.78
2022-11-28T10:56:31.272Z,100992.41
2022-11-28T10:59:15.125Z,100979.16
2022-11-28T11:01:44.745Z,100976.03
2022-11-28T11:04:20.060Z,100976.81
2022-11-28T11:07:15.058Z,100974.88
2022-11-28T11:09:46.951Z,100976.72
2022-11-28T11:12:26.871Z,100974.75
2022-11-28T11:14:53.380Z,100977.59
2022-11-28T11:17:40.286Z,100972.47
2022-11-28T11:20:25.561Z,100968.47
2022-11-28T11:22:56.670Z,100976.41
2022-11-28T11:25:23.885Z,100966.25
2022-11-28T11:27:55.157Z,100970.41
2022-11-28T11:30:31.915Z,100964.69
2022-11-28T11:33:01.084Z,100964.38
2022-11-28T11:35:31.613Z,100967.69
2022-11-28T11:38:14.406Z,100959.59
2022-11-28T11:40:45.880Z,100952.97
2022-11-28T11:43:30.991Z,100969.72
2022-11-28T11:46:08.124Z,100973.00
2022-11-28T11:48:41.966Z,100972.53
2022-11-28T11:51:28.798Z,100966.59
2022-11-28T11:54:05.491Z,100961.97
2022-11-28T11:56:36.405Z,100967.78
2022-11-28T11:59:03.768Z,100961.97
2022-11-28T12:01:33.091Z,100959.97
2022-11-28T12:04:13.298Z,100955.03
2022-11-28T12:06:55.459Z,100953.44
2022-11-28T12:09:39.621Z,100955.78
2022-11-28T12:12:29.257Z,100958.63
2022-11-28T12:14:55.896Z,100948.72
2022-11-28T12:20:20.876Z,100942.13
2022-11-28T12:22:49.950Z,100942.47
2022-11-28T12:25:25.631Z,100937.03
2022-11-28T12:28:00.776Z,100938.88
2022-11-28T12:30:34.201Z,100943.31
2022-11-28T12:33:02.971Z,100941.66
2022-11-28T12:35:32.669Z,100939.69
2022-11-28T12:38:14.658Z,100931.56
2022-11-28T12:40:46.933Z,100931.63
2022-11-28T12:43:16.297Z,100930.91
2022-11-28T12:45:45.860Z,100930.53
2022-11-28T12:48:16.487Z,100935.13
2022-11-28T12:50:44.620Z,100927.72
2022-11-28T12:53:29.990Z,100929.31
2022-11-28T12:56:15.799Z,100924.84
2022-11-28T12:58:46.554Z,100926.63
2022-11-28T13:01:22.781Z,100920.00
2022-11-28T13:04:01.095Z,100920.56
2022-11-28T13:06:36.816Z,100914.19
2022-11-28T13:09:27.747Z,100910.78
2022-11-28T13:11:59.783Z,100913.19
2022-11-28T13:14:32.018Z,100907.97
2022-11-28T13:17:04.530Z,100910.59
2022-11-28T13:19:38.163Z,100912.41
2022-11-28T13:22:10.308Z,100904.81
2022-11-28T13:24:40.654Z,100908.44
2022-11-28T13:27:07.812Z,100904.31
2022-11-28T13:30:11.667Z,100906.06
2022-11-28T13:32:44.961Z,100894.13
2022-11-28T13:35:25.660Z,100899.13
2022-11-28T13:41:05.456Z,100899.66
2022-11-28T13:43:40.246Z,100904.16
2022-11-28T13:46:09.446Z,100901.75
2022-11-28T13:49:12.457Z,100900.22
2022-11-28T13:51:35.685Z,100904.00
2022-11-28T13:54:18.035Z,100899.81
2022-11-28T13:57:03.702Z,100902.41
2022-11-28T13:59:30.665Z,100904.81
2022-11-28T14:01:58.031Z,100903.28
2022-11-28T14:04:28.118Z,100904.16
2022-11-28T14:07:05.075Z,100899.72
2022-11-28T14:09:54.777Z,100896.25
2022-11-28T14:12:23.390Z,100896.09
2022-11-28T14:14:56.091Z,100889.00
2022-11-28T14:17:22.717Z,100887.97
2022-11-28T14:20:02.010Z,100892.97
2022-11-28T14:22:31.484Z,100891.81
2022-11-28T14:25:21.504Z,100888.97
2022-11-28T14:27:58.402Z,100895.50
2022-11-28T14:30:31.144Z,100889.28
2022-11-28T14:32:58.819Z,100892.69
2022-11-28T14:35:44.226Z,100892.69
2022-11-28T14:38:29.786Z,100885.56
2022-11-28T14:41:06.373Z,100879.44
2022-11-28T14:43:34.344Z,100877.75
2022-11-28T14:46:19.536Z,100886.94
2022-11-28T14:48:59.083Z,100884.66
2022-11-28T14:51:44.420Z,100882.66
2022-11-28T14:54:27.123Z,100879.66
2022-11-28T14:56:59.454Z,100880.22
2022-11-28T14:59:37.310Z,100876.44
2022-11-28T15:02:13.109Z,100881.16
2022-11-28T15:05:02.216Z,100875.50
2022-11-28T15:07:36.276Z,100884.66
2022-11-28T15:10:08.386Z,100877.38
2022-11-28T15:12:41.261Z,100878.03
2022-11-28T15:15:12.733Z,100881.25
2022-11-28T15:17:41.900Z,100886.94
2022-11-28T15:20:09.467Z,100899.56
2022-11-28T15:22:42.002Z,100900.38
2022-11-28T15:25:22.118Z,100899.41
2022-11-28T15:27:48.906Z,100899.41
2022-11-28T15:30:29.256Z,100898.19
2022-11-28T15:33:00.889Z,100900.41
2022-11-28T15:35:28.239Z,100898.34
2022-11-28T15:37:55.347Z,100901.56
2022-11-28T15:40:35.246Z,100897.97
2022-11-28T15:43:06.601Z,100899.50
2022-11-28T15:45:37.108Z,100900.84
2022-11-28T15:48:05.864Z,100900.72
2022-11-28T15:50:34.650Z,100907.66
2022-11-28T15:53:04.766Z,100904.38
2022-11-28T15:55:32.471Z,100913.81
2022-11-28T15:58:17.855Z,100906.94
2022-11-28T16:00:45.050Z,100912.22
2022-11-28T16:03:18.357Z,100910.59
2022-11-28T16:05:48.090Z,100907.75
2022-11-28T16:08:25.729Z,100916.00
2022-11-28T16:10:55.230Z,100908.00
2022-11-28T16:13:22.003Z,100908.81
2022-11-28T16:15:52.575Z,100909.00
2022-11-28T16:18:21.704Z,100913.63
2022-11-28T16:20:48.302Z,100915.56
2022-11-28T16:23:23.529Z,100919.13
2022-11-28T16:26:03.378Z,100926.06
2022-11-28T16:28:31.748Z,100917.38
2022-11-28T16:30:58.516Z,100915.75
2022-11-28T16:33:41.510Z,100915.56
2022-11-28T16:36:17.861Z,100919.31
2022-11-28T16:38:44.568Z,100913.66
2022-11-28T16:41:18.086Z,100909.56
2022-11-28T16:43:48.042Z,100904.28
2022-11-28T16:46:21.781Z,100918.69
2022-11-28T16:48:49.643Z,100909.56
2022-11-28T16:51:37.927Z,100918.81
2022-11-28T16:54:24.030Z,100916.63
2022-11-28T16:56:50.663Z,100914.94
2022-11-28T16:59:20.042Z,100914.94
2022-11-28T17:01:52.514Z,100917.22
2022-11-28T17:04:22.678Z,100922.00
2022-11-28T17:06:49.968Z,100918.34
2022-11-28T17:09:16.654Z,100918.75
2022-11-28T17:11:44.560Z,100921.94
2022-11-28T17:14:14.576Z,100921.69
2022-11-28T17:16:41.886Z,100924.75
2022-11-28T17:19:08.770Z,100926.34
2022-11-28T17:21:51.999Z,100926.16
2022-11-28T17:24:18.618Z,100924.00
2022-11-28T17:26:45.303Z,100929.75
2022-11-28T17:29:12.983Z,100926.97
2022-11-28T17:31:42.603Z,100927.50
2022-11-28T17:34:13.552Z,100936.56
2022-11-28T17:36:40.408Z,100928.38
2022-11-28T17:39:07.068Z,100930.56
2022-11-28T17:41:36.053Z,100930.25
2022-11-28T17:44:10.223Z,100937.69
2022-11-28T17:46:36.799Z,100929.69
2022-11-28T17:49:03.417Z,100940.66
2022-11-28T17:51:29.947Z,100931.06
2022-11-28T17:54:01.494Z,100931.25
2022-11-28T17:56:31.556Z,100926.03
2022-11-28T17:59:01.678Z,100927.81
2022-11-28T18:01:29.330Z,100925.44
2022-11-28T18:03:58.686Z,100933.84
2022-11-28T18:06:25.273Z,100933.34
2022-11-28T18:08:52.555Z,100934.03
2022-11-28T18:11:19.354Z,100933.03
2022-11-28T18:13:48.879Z,100940.66
2022-11-28T18:16:17.346Z,100939.56
2022-11-28T18:18:44.377Z,100939.38
2022-11-28T18:21:13.806Z,100940.25
2022-11-28T18:23:43.400Z,100936.72
2022-11-28T18:26:13.799Z,100937.59
2022-11-28T18:28:42.854Z,100944.78
2022-11-28T18:31:13.586Z,100942.63
2022-11-28T18:33:40.404Z,100939.78
2022-11-28T18:36:10.957Z,100936.59
2022-11-28T18:38:38.576Z,100937.69
2022-11-28T18:41:06.186Z,100938.69
2022-11-28T18:43:35.685Z,100945.69
2022-11-28T18:46:03.277Z,100945.81
2022-11-28T18:48:30.307Z,100944.03
2022-11-28T18:50:57.045Z,100943.13
2022-11-28T18:53:26.429Z,100941.16
2022-11-28T18:56:03.147Z,100945.13
2022-11-28T18:58:36.775Z,100939.47
2022-11-28T19:01:15.543Z,100955.50
2022-11-28T19:03:42.577Z,100947.50
2022-11-28T19:06:14.928Z,100944.78
2022-11-28T19:08:48.846Z,100949.25
2022-11-28T19:11:21.732Z,100947.06
2022-11-28T19:13:51.138Z,100938.13
2022-11-28T19:16:33.617Z,100943.19
2022-11-28T19:19:00.481Z,100941.31
2022-11-28T19:21:32.037Z,100935.88
2022-11-28T19:23:58.927Z,100933.97
2022-11-28T19:26:33.601Z,100938.63
2022-11-28T19:29:00.655Z,100939.19
2022-11-28T19:31:29.237Z,100936.44
2022-11-28T19:34:01.181Z,100941.56
2022-11-28T19:36:31.226Z,100944.13
2022-11-28T19:39:00.243Z,100941.78
2022-11-28T19:41:27.166Z,100941.44
2022-11-28T19:43:53.899Z,100936.09
2022-11-28T19:46:20.956Z,100949.06
2022-11-28T19:48:48.098Z,100940.09
2022-11-28T19:51:17.519Z,100943.38
2022-11-28T19:53:44.554Z,100948.25
2022-11-28T19:56:14.635Z,100948.16
2022-11-28T19:58:44.013Z,100946.41
2022-11-28T20:01:14.580Z,100951.22
2022-11-28T20:03:45.330Z,100939.88
2022-11-28T20:06:22.685Z,100940.25
2022-11-28T20:08:49.850Z,100934.53
2022-11-28T20:11:16.920Z,100938.91
2022-11-28T20:13:46.422Z,100939.09
2022-11-28T20:16:16.318Z,100939.25
2022-11-28T20:18:45.801Z,100942.03
2022-11-28T20:21:17.108Z,100940.47
2022-11-28T20:23:44.811Z,100943.91
2022-11-28T20:26:11.677Z,100934.09
2022-11-28T20:28:39.488Z,100937.97
2022-11-28T20:31:08.985Z,100945.00
2022-11-28T20:33:35.702Z,100941.53
2022-11-28T20:36:11.719Z,100940.53
2022-11-28T20:38:38.316Z,100942.81
2022-11-28T20:41:08.575Z,100940.06
2022-11-28T20:43:38.071Z,100949.47
2022-11-28T20:46:05.956Z,100949.47
2022-11-28T20:48:32.697Z,100940.06
2022-11-28T20:51:01.744Z,100937.28
2022-11-28T20:53:28.733Z,100942.22
2022-11-28T20:56:02.155Z,100943.72
2022-11-28T20:58:29.181Z,100949.56
2022-11-28T21:00:58.697Z,100941.06
2022-11-28T21:03:27.982Z,100940.25
2022-11-28T21:06:00.675Z,100953.31
2022-11-28T21:08:30.555Z,100951.03
2022-11-28T21:10:59.830Z,100942.94
2022-11-28T21:13:26.418Z,100957.09
2022-11-28T21:15:53.721Z,100951.56
2022-11-28T21:18:22.895Z,100957.88
2022-11-28T21:20:49.509Z,100954.59
2022-11-28T21:23:18.559Z,100953.03
2022-11-28T21:25:45.245Z,100950.53
2022-11-28T21:28:12.048Z,100958.53
2022-11-28T21:30:45.940Z,100958.03
2022-11-28T21:33:12.834Z,100955.84
2022-11-28T21:35:39.582Z,100958.44
2022-11-28T21:38:09.346Z,100952.66
2022-11-28T21:40:35.831Z,100944.06
2022-11-28T21:43:04.870Z,100946.56
2022-11-28T21:45:33.866Z,100950.91
2022-11-28T21:48:03.006Z,100947.63
2022-11-28T21:50:29.828Z,100953.66
2022-11-28T21:52:57.225Z,100954.63
2022-11-28T21:55:23.896Z,100952.97
2022-11-28T21:57:52.723Z,100954.03
2022-11-28T22:00:45.951Z,100954.94
2022-11-28T22:03:17.206Z,100949.09
2022-11-28T22:05:49.158Z,100957.09
2022-11-28T22:08:15.991Z,100949.25
2022-11-28T22:10:42.715Z,100956.09
2022-11-28T22:13:09.862Z,100947.66
2022-11-28T22:15:41.764Z,100948.66
2022-11-28T22:18:11.048Z,100947.84
2022-11-28T22:20:43.612Z,100950.44
2022-11-28T22:23:13.634Z,100946.09
2022-11-28T22:25:49.958Z,100957.78
2022-11-28T22:28:19.383Z,100954.22
2022-11-28T22:30:46.953Z,100954.22
2022-11-28T22:33:19.801Z,100945.50
2022-11-28T22:35:46.491Z,100951.47
2022-11-28T22:38:15.487Z,100947.09
2022-11-28T22:40:44.722Z,100945.25
2022-11-28T22:43:11.302Z,100956.25
2022-11-28T22:45:37.971Z,100946.56
2022-11-28T22:48:07.572Z,100937.56
2022-11-28T22:50:40.267Z,100940.00
2022-11-28T22:53:09.511Z,100940.63
2022-11-28T22:55:38.152Z,100940.63
2022-11-28T22:58:07.058Z,100948.53
2022-11-28T23:00:34.510Z,100946.75
2022-11-28T23:03:01.264Z,100947.47
2022-11-28T23:05:28.095Z,100947.34
2022-11-28T23:07:57.464Z,100946.38
2022-11-28T23:10:24.131Z,100950.16
2022-11-28T23:12:50.685Z,100952.53
2022-11-28T23:15:17.371Z,100944.81
2022-11-28T23:17:46.435Z,100946.59
2022-11-28T23:20:13.150Z,100946.59
2022-11-28T23:22:39.784Z,100957.78
2022-11-28T23:25:09.015Z,100956.09
2022-11-28T23:27:35.908Z,100953.53
2022-11-28T23:30:02.519Z,100947.50
2022-11-28T23:32:29.340Z,100949.19
2022-11-28T23:34:56.060Z,100949.19
2022-11-28T23:37:23.950Z,100951.22
2022-11-28T23:39:50.530Z,100947.88
2022-11-28T23:42:17.246Z,100954.69
2022-11-28T23:44:44.027Z,100954.41
2022-11-28T23:47:13.168Z,100946.59
2022-11-28T23:49:39.702Z,100948.97
2022-11-28T23:52:06.254Z,100945.50
2022-11-28T23:54:34.491Z,100944.59
2022-11-28T23:57:01.009Z,100934.31
2022-11-28T23:59:27.582Z,100941.66
